Time;durP1;ratioP1;P1;durP2;ratioP2;P2;SDS_P1;SDS_P2;PMS_P1;PMS_P2;Temp;Humidity;BMP_temperature;BMP_pressure;BME280_temperature;BME280_humidity;BME280_pressure;Samples;Min_cycle;Max_cycle;Signal;HPM_P1;HPM_P2
2022/01/06 00:00:24;;;;;;;;;;;4.50;99.90;;;;;;5051377;28;19955;-43
2022/01/06 00:02:49;;;;;;;;;;;4.40;99.90;;;;;;5053499;28;19913;-42
2022/01/06 00:05:15;;;;;;;;;;;4.40;99.90;;;;;;5054834;28;19915;-42
2022/01/06 00:07:40;;;;;;;;;;;4.40;99.90;;;;;;5054930;28;19912;-46
2022/01/06 00:10:10;;;;;;;;;;;4.30;99.90;;;;;;5054048;28;19908;-43
2022/01/06 00:12:51;;;;;;;;;;;4.30;99.90;;;;;;5054732;28;20375;-44
2022/01/06 00:15:36;;;;;;;;;;;4.30;99.90;;;;;;5058485;28;20346;-43
2022/01/06 00:25:57;;;;;;;;;;;4.20;99.90;;;;;;5074354;28;20378;-43
2022/01/06 00:28:22;;;;;;;;;;;4.20;99.90;;;;;;5074652;28;19908;-44
2022/01/06 00:30:48;;;;;;;;;;;4.20;99.90;;;;;;5073961;28;19908;-43
2022/01/06 00:33:13;;;;;;;;;;;4.20;99.90;;;;;;5074076;28;20693;-42
2022/01/06 00:35:39;;;;;;;;;;;4.20;99.90;;;;;;5064574;28;19917;-43
2022/01/06 00:38:08;;;;;;;;;;;4.20;99.90;;;;;;5052954;28;19931;-43
2022/01/06 00:40:35;;;;;;;;;;;4.20;99.90;;;;;;5054325;28;19919;-43
2022/01/06 00:43:02;;;;;;;;;;;4.20;99.90;;;;;;5053835;28;20009;-42
2022/01/06 00:45:28;;;;;;;;;;;4.20;99.90;;;;;;5053617;28;20366;-44
2022/01/06 00:47:53;;;;;;;;;;;4.10;99.90;;;;;;5053984;28;20015;-43
2022/01/06 00:50:19;;;;;;;;;;;4.10;99.90;;;;;;5053859;28;19915;-43
2022/01/06 00:52:44;;;;;;;;;;;4.10;99.90;;;;;;5053562;28;19909;-44
2022/01/06 00:55:09;;;;;;;;;;;4.10;99.90;;;;;;5061059;28;19920;-43
2022/01/06 00:57:35;;;;;;;;;;;4.10;99.90;;;;;;5073588;28;19936;-43
2022/01/06 01:00:00;;;;;;;;;;;4.10;99.90;;;;;;5073078;28;19959;-43
2022/01/06 01:02:26;;;;;;;;;;;4.20;99.90;;;;;;5073752;28;20355;-42
2022/01/06 01:04:51;;;;;;;;;;;4.20;99.90;;;;;;5073320;28;20256;-43
2022/01/06 01:07:17;;;;;;;;;;;4.20;99.90;;;;;;5073187;28;19909;-43
2022/01/06 01:09:42;;;;;;;;;;;4.20;99.90;;;;;;5073807;28;19920;-43
2022/01/06 01:12:08;;;;;;;;;;;4.20;99.90;;;;;;5073051;28;19908;-43
2022/01/06 01:14:44;;;;;;;;;;;4.10;99.90;;;;;;5068079;28;19951;-43
2022/01/06 01:17:14;;;;;;;;;;;4.10;99.90;;;;;;5053259;28;19913;-43
2022/01/06 01:19:40;;;;;;;;;;;4.00;99.90;;;;;;5052998;28;19917;-42
2022/01/06 01:22:05;;;;;;;;;;;4.00;99.90;;;;;;5053131;28;19909;-42
2022/01/06 01:24:30;;;;;;;;;;;4.00;99.90;;;;;;5053523;28;19908;-43
2022/01/06 01:26:56;;;;;;;;;;;4.00;99.90;;;;;;5052592;28;19924;-43
2022/01/06 01:29:22;;;;;;;;;;;4.00;99.90;;;;;;5053379;28;20260;-42
2022/01/06 01:31:53;;;;;;;;;;;4.10;99.90;;;;;;5053383;28;19908;-43
2022/01/06 01:34:23;;;;;;;;;;;4.10;99.90;;;;;;5057578;28;20012;-42
2022/01/06 01:36:49;;;;;;;;;;;4.10;99.90;;;;;;5072875;28;19920;-43
2022/01/06 01:39:14;;;;;;;;;;;4.10;99.90;;;;;;5071085;28;19932;-43
2022/01/06 01:41:40;;;;;;;;;;;4.00;99.90;;;;;;5072769;28;19908;-43
2022/01/06 01:44:12;;;;;;;;;;;4.00;99.90;;;;;;5072557;28;19915;-43
2022/01/06 01:46:43;;;;;;;;;;;3.90;99.90;;;;;;5072944;28;19912;-42
2022/01/06 01:51:50;;;;;;;;;;;3.90;99.90;;;;;;5072952;28;19977;-42
2022/01/06 01:54:16;;;;;;;;;;;4.00;99.90;;;;;;5072429;28;19912;-44
2022/01/06 01:56:42;;;;;;;;;;;4.00;99.90;;;;;;5072417;28;19909;-43
2022/01/06 01:59:07;;;;;;;;;;;4.00;99.90;;;;;;5072197;28;19966;-43
2022/01/06 02:01:33;;;;;;;;;;;3.90;99.90;;;;;;5072558;28;19916;-43
2022/01/06 02:03:58;;;;;;;;;;;3.90;99.90;;;;;;5070301;28;20397;-43
2022/01/06 02:06:24;;;;;;;;;;;3.90;99.90;;;;;;5072415;28;19909;-42
2022/01/06 02:08:51;;;;;;;;;;;3.90;99.90;;;;;;5072080;28;19908;-47
2022/01/06 02:11:17;;;;;;;;;;;3.90;99.90;;;;;;5072321;28;19963;-43
2022/01/06 02:13:49;;;;;;;;;;;3.90;99.90;;;;;;5072178;28;19947;-43
2022/01/06 02:16:18;;;;;;;;;;;3.90;99.90;;;;;;5071887;28;19916;-43
2022/01/06 02:18:43;;;;;;;;;;;3.90;99.90;;;;;;5072493;28;19916;-43
2022/01/06 02:21:09;;;;;;;;;;;3.90;99.90;;;;;;5072162;28;20562;-42
2022/01/06 02:23:34;;;;;;;;;;;3.90;99.90;;;;;;5071665;28;19909;-43
2022/01/06 02:26:00;;;;;;;;;;;3.90;99.90;;;;;;5071701;28;19966;-44
2022/01/06 02:28:25;;;;;;;;;;;3.90;99.90;;;;;;5072023;28;19958;-42
2022/01/06 02:30:52;;;;;;;;;;;3.90;99.90;;;;;;5071537;28;19956;-43
2022/01/06 02:33:18;;;;;;;;;;;3.90;99.90;;;;;;5072293;28;19909;-43
2022/01/06 02:35:43;;;;;;;;;;;3.90;99.90;;;;;;5057103;28;19912;-43
2022/01/06 02:38:09;;;;;;;;;;;3.90;99.90;;;;;;5050988;28;20295;-43
2022/01/06 02:40:35;;;;;;;;;;;3.90;99.90;;;;;;5052168;28;20233;-43
2022/01/06 02:43:02;;;;;;;;;;;3.80;99.90;;;;;;5051850;28;19916;-43
2022/01/06 02:45:29;;;;;;;;;;;3.90;99.90;;;;;;5051585;28;19912;-42
2022/01/06 02:47:55;;;;;;;;;;;3.90;99.90;;;;;;5051878;28;19913;-43
2022/01/06 02:50:21;;;;;;;;;;;3.80;99.90;;;;;;5051833;28;19916;-43
2022/01/06 02:52:47;;;;;;;;;;;3.80;99.90;;;;;;5051763;28;19908;-43
2022/01/06 02:55:13;;;;;;;;;;;3.90;99.90;;;;;;5051617;28;19909;-43
2022/01/06 02:57:38;;;;;;;;;;;3.90;99.90;;;;;;5052727;28;19912;-43
2022/01/06 03:00:08;;;;;;;;;;;3.90;99.90;;;;;;5051361;28;19909;-43
2022/01/06 03:02:33;;;;;;;;;;;3.80;99.90;;;;;;5051941;28;19970;-44
2022/01/06 03:04:59;;;;;;;;;;;3.90;99.90;;;;;;5051455;28;20003;-43
2022/01/06 03:07:26;;;;;;;;;;;3.90;99.90;;;;;;5051425;28;19913;-45
2022/01/06 03:09:55;;;;;;;;;;;3.90;99.90;;;;;;5051523;28;19909;-44
2022/01/06 03:12:26;;;;;;;;;;;3.90;99.90;;;;;;5051217;28;20232;-42
2022/01/06 03:14:51;;;;;;;;;;;3.90;99.90;;;;;;5051703;28;19916;-43
2022/01/06 03:17:17;;;;;;;;;;;3.90;99.90;;;;;;5051774;28;19909;-43
2022/01/06 03:19:42;;;;;;;;;;;3.90;99.90;;;;;;5051300;28;19916;-43
2022/01/06 03:22:08;;;;;;;;;;;3.80;99.90;;;;;;5051480;28;19909;-43
2022/01/06 03:24:34;;;;;;;;;;;3.80;99.90;;;;;;5051705;28;19913;-43
2022/01/06 03:26:59;;;;;;;;;;;3.80;99.90;;;;;;5054617;28;19974;-43
2022/01/06 03:29:25;;;;;;;;;;;3.80;99.90;;;;;;5071615;28;19920;-43
2022/01/06 03:31:50;;;;;;;;;;;3.80;99.90;;;;;;5071669;28;20263;-44
2022/01/06 03:34:16;;;;;;;;;;;3.80;99.90;;;;;;5071211;28;19908;-43
2022/01/06 03:36:41;;;;;;;;;;;3.80;99.90;;;;;;5072489;28;20337;-43
2022/01/06 03:39:07;;;;;;;;;;;3.80;99.90;;;;;;5075001;28;19917;-44
2022/01/06 03:41:33;;;;;;;;;;;3.80;99.90;;;;;;5074715;28;19916;-43
2022/01/06 03:43:59;;;;;;;;;;;3.70;99.90;;;;;;5075153;28;20326;-43
2022/01/06 03:46:24;;;;;;;;;;;3.70;99.90;;;;;;5074910;28;19944;-43
2022/01/06 03:48:50;;;;;;;;;;;3.60;99.90;;;;;;5074691;28;19962;-43
2022/01/06 03:51:16;;;;;;;;;;;3.60;99.90;;;;;;5075122;28;19915;-43
2022/01/06 03:53:42;;;;;;;;;;;3.60;99.90;;;;;;5074956;28;20364;-43
2022/01/06 03:56:07;;;;;;;;;;;3.60;99.90;;;;;;5074273;28;19909;-42
2022/01/06 03:58:33;;;;;;;;;;;3.50;99.90;;;;;;5055318;28;19924;-43
2022/01/06 04:00:58;;;;;;;;;;;3.40;99.90;;;;;;5055458;28;19913;-44
2022/01/06 04:03:23;;;;;;;;;;;3.40;99.90;;;;;;5054590;28;19909;-43
2022/01/06 04:05:49;;;;;;;;;;;3.30;99.90;;;;;;5054932;28;20007;-43
2022/01/06 04:08:14;;;;;;;;;;;3.30;99.90;;;;;;5054597;28;19909;-43
2022/01/06 04:10:40;;;;;;;;;;;3.30;99.90;;;;;;5054352;28;20379;-42
2022/01/06 04:13:05;;;;;;;;;;;3.30;99.90;;;;;;5054610;28;19962;-43
2022/01/06 04:15:31;;;;;;;;;;;3.30;99.90;;;;;;5054214;28;19955;-42
2022/01/06 04:17:56;;;;;;;;;;;3.30;99.90;;;;;;5054430;28;19928;-43
2022/01/06 04:20:22;;;;;;;;;;;3.20;99.90;;;;;;5054706;28;20320;-44
2022/01/06 04:22:47;;;;;;;;;;;3.10;99.90;;;;;;5054827;28;19919;-42
2022/01/06 04:25:13;;;;;;;;;;;3.10;99.90;;;;;;5054974;28;19959;-43
2022/01/06 04:27:38;;;;;;;;;;;3.10;99.90;;;;;;5055135;28;19955;-43
2022/01/06 04:30:07;;;;;;;;;;;3.10;99.90;;;;;;5061364;28;20264;-43
2022/01/06 04:32:33;;;;;;;;;;;3.10;99.90;;;;;;5075176;28;19931;-43
2022/01/06 04:34:59;;;;;;;;;;;3.00;99.90;;;;;;5074899;28;20263;-43
2022/01/06 04:37:26;;;;;;;;;;;3.10;99.90;;;;;;5074237;28;19921;-43
2022/01/06 04:39:52;;;;;;;;;;;3.10;99.90;;;;;;5074749;28;19970;-42
2022/01/06 04:42:17;;;;;;;;;;;3.10;99.90;;;;;;5075052;28;19909;-42
2022/01/06 04:44:43;;;;;;;;;;;3.10;99.90;;;;;;5074102;28;19958;-43
2022/01/06 04:47:08;;;;;;;;;;;3.10;99.90;;;;;;5074186;28;19916;-42
2022/01/06 04:49:34;;;;;;;;;;;3.10;99.90;;;;;;5074668;28;19908;-43
2022/01/06 04:52:01;;;;;;;;;;;3.10;99.90;;;;;;5074204;28;20310;-45
2022/01/06 04:54:26;;;;;;;;;;;3.00;99.90;;;;;;5074786;28;20046;-43
2022/01/06 04:56:51;;;;;;;;;;;3.00;99.90;;;;;;5074285;28;20395;-43
2022/01/06 04:59:17;;;;;;;;;;;3.00;99.90;;;;;;5071564;28;19928;-43
2022/01/06 05:01:42;;;;;;;;;;;3.00;99.90;;;;;;5054536;28;19955;-42
2022/01/06 05:04:08;;;;;;;;;;;3.00;99.90;;;;;;5055014;28;19966;-43
2022/01/06 05:06:34;;;;;;;;;;;2.90;99.90;;;;;;5054396;28;19913;-43
2022/01/06 05:09:00;;;;;;;;;;;2.90;99.90;;;;;;5054309;28;19909;-44
2022/01/06 05:11:25;;;;;;;;;;;2.90;99.90;;;;;;5065244;28;20011;-43
2022/01/06 05:13:51;;;;;;;;;;;2.80;99.90;;;;;;5073760;28;19948;-43
2022/01/06 05:16:16;;;;;;;;;;;2.80;99.90;;;;;;5074259;28;19908;-43
2022/01/06 05:18:42;;;;;;;;;;;2.80;99.90;;;;;;5073742;28;20530;-43
2022/01/06 05:21:07;;;;;;;;;;;2.70;99.90;;;;;;5073377;28;19916;-42
2022/01/06 05:23:33;;;;;;;;;;;2.70;99.90;;;;;;5074181;28;20346;-43
2022/01/06 05:25:59;;;;;;;;;;;2.70;99.90;;;;;;5073389;28;19908;-43
2022/01/06 05:28:25;;;;;;;;;;;2.70;99.90;;;;;;5073821;28;19915;-43
2022/01/06 05:30:50;;;;;;;;;;;2.60;99.90;;;;;;5073989;28;20275;-46
2022/01/06 05:33:16;;;;;;;;;;;2.60;99.90;;;;;;5073308;28;20063;-43
2022/01/06 05:35:41;;;;;;;;;;;2.50;99.90;;;;;;5072042;28;19966;-42
2022/01/06 05:38:07;;;;;;;;;;;2.50;99.90;;;;;;5073148;28;20346;-43
2022/01/06 05:40:32;;;;;;;;;;;2.50;99.90;;;;;;5073394;28;19912;-43
2022/01/06 05:42:58;;;;;;;;;;;2.50;99.90;;;;;;5073417;28;20268;-44
2022/01/06 05:45:24;;;;;;;;;;;2.50;99.90;;;;;;5073733;28;19912;-43
2022/01/06 05:47:50;;;;;;;;;;;2.50;99.90;;;;;;5073025;28;19912;-45
2022/01/06 05:50:15;;;;;;;;;;;2.50;99.90;;;;;;5073570;28;19948;-43
2022/01/06 05:52:40;;;;;;;;;;;2.50;99.90;;;;;;5073389;28;19913;-42
2022/01/06 05:55:06;;;;;;;;;;;2.50;99.90;;;;;;5072780;28;19909;-43
2022/01/06 05:57:32;;;;;;;;;;;2.50;99.90;;;;;;5073531;28;19915;-43
2022/01/06 05:59:57;;;;;;;;;;;2.60;99.90;;;;;;5072280;28;19952;-42
2022/01/06 06:02:23;;;;;;;;;;;2.60;99.90;;;;;;5073105;28;19913;-43
2022/01/06 06:04:48;;;;;;;;;;;2.60;99.90;;;;;;5068332;28;19919;-44
2022/01/06 06:07:14;;;;;;;;;;;2.60;99.90;;;;;;5052733;28;19916;-43
2022/01/06 06:09:39;;;;;;;;;;;2.50;99.90;;;;;;5052945;28;20378;-44
2022/01/06 06:12:06;;;;;;;;;;;2.60;99.90;;;;;;5052914;28;20340;-43
2022/01/06 06:14:32;;;;;;;;;;;2.50;99.90;;;;;;5053067;28;19919;-43
2022/01/06 06:16:57;;;;;;;;;;;2.50;99.90;;;;;;5052520;28;19908;-43
2022/01/06 06:19:23;;;;;;;;;;;2.50;99.90;;;;;;5053072;28;19963;-43
2022/01/06 06:21:48;;;;;;;;;;;2.50;99.90;;;;;;5052830;28;19909;-43
2022/01/06 06:24:14;;;;;;;;;;;2.50;99.90;;;;;;5052460;28;20360;-43
2022/01/06 06:26:39;;;;;;;;;;;2.50;99.90;;;;;;5053046;28;19940;-43
2022/01/06 06:29:05;;;;;;;;;;;2.50;99.90;;;;;;5052304;28;19909;-47
2022/01/06 06:31:30;;;;;;;;;;;2.50;99.90;;;;;;5053051;28;19909;-43
2022/01/06 06:33:56;;;;;;;;;;;2.50;99.90;;;;;;5052579;28;19956;-43
2022/01/06 06:36:21;;;;;;;;;;;2.50;99.90;;;;;;5069115;28;19919;-43
2022/01/06 06:38:47;;;;;;;;;;;2.50;99.90;;;;;;5072829;28;19924;-44
2022/01/06 06:41:12;;;;;;;;;;;2.50;99.90;;;;;;5072675;28;19912;-43
2022/01/06 06:43:38;;;;;;;;;;;2.50;99.90;;;;;;5072340;28;19909;-44
2022/01/06 06:46:03;;;;;;;;;;;2.50;99.90;;;;;;5072551;28;19909;-42
2022/01/06 06:48:29;;;;;;;;;;;2.50;99.90;;;;;;5072842;28;19909;-43
2022/01/06 06:50:54;;;;;;;;;;;2.50;99.90;;;;;;5072048;28;19909;-45
2022/01/06 06:53:19;;;;;;;;;;;2.50;99.90;;;;;;5072695;28;19909;-42
2022/01/06 06:55:45;;;;;;;;;;;2.50;99.90;;;;;;5072530;28;19914;-43
2022/01/06 06:58:11;;;;;;;;;;;2.50;99.90;;;;;;5071915;28;20025;-43
2022/01/06 07:00:36;;;;;;;;;;;2.50;99.90;;;;;;5072803;28;20252;-43
2022/01/06 07:03:02;;;;;;;;;;;2.50;99.90;;;;;;5072261;28;19948;-43
2022/01/06 07:05:28;;;;;;;;;;;2.40;99.90;;;;;;5062048;28;19928;-43
2022/01/06 07:07:53;;;;;;;;;;;2.30;99.90;;;;;;5052304;28;19913;-42
2022/01/06 07:10:18;;;;;;;;;;;2.20;99.90;;;;;;5052966;28;19972;-42
2022/01/06 07:12:44;;;;;;;;;;;2.00;99.90;;;;;;5056156;28;19915;-43
2022/01/06 07:15:11;;;;;;;;;;;1.90;99.90;;;;;;5056350;28;19920;-43
2022/01/06 07:17:37;;;;;;;;;;;1.80;99.90;;;;;;5056403;28;19909;-43
2022/01/06 07:20:03;;;;;;;;;;;1.70;99.90;;;;;;5055859;28;20379;-44
2022/01/06 07:22:29;;;;;;;;;;;1.70;99.90;;;;;;5056515;28;19913;-43
2022/01/06 07:24:54;;;;;;;;;;;1.60;99.90;;;;;;5055915;28;20070;-45
2022/01/06 07:27:20;;;;;;;;;;;1.60;99.90;;;;;;5056048;28;19916;-43
2022/01/06 07:29:45;;;;;;;;;;;1.50;99.90;;;;;;5056379;28;19916;-42
2022/01/06 07:32:11;;;;;;;;;;;1.50;99.90;;;;;;5055852;28;19909;-43
2022/01/06 07:34:36;;;;;;;;;;;1.50;99.90;;;;;;5057608;28;19909;-43
2022/01/06 07:37:02;;;;;;;;;;;1.50;99.90;;;;;;5075594;28;20005;-44
2022/01/06 07:39:27;;;;;;;;;;;1.50;99.90;;;;;;5075456;28;20359;-43
2022/01/06 07:41:53;;;;;;;;;;;1.50;99.90;;;;;;5075833;28;19940;-44
2022/01/06 07:44:18;;;;;;;;;;;1.40;99.90;;;;;;5075900;28;20375;-43
2022/01/06 07:46:45;;;;;;;;;;;1.40;99.90;;;;;;5075504;28;20022;-43
2022/01/06 07:49:11;;;;;;;;;;;1.40;99.90;;;;;;5075524;28;20333;-43
2022/01/06 07:51:37;;;;;;;;;;;1.30;99.90;;;;;;5076054;28;20347;-43
2022/01/06 07:54:02;;;;;;;;;;;1.30;99.90;;;;;;5075221;28;20007;-43
2022/01/06 07:56:28;;;;;;;;;;;1.30;99.90;;;;;;5075838;28;19948;-43
2022/01/06 07:58:54;;;;;;;;;;;1.30;99.90;;;;;;5073508;28;19925;-43
2022/01/06 08:01:19;;;;;;;;;;;1.30;99.90;;;;;;5059533;28;19916;-43
2022/01/06 08:03:44;;;;;;;;;;;1.30;99.90;;;;;;5062591;28;19912;-43
2022/01/06 08:06:11;;;;;;;;;;;1.20;99.90;;;;;;5071389;28;19935;-43
2022/01/06 08:08:36;;;;;;;;;;;1.20;99.90;;;;;;5074639;28;19908;-43
2022/01/06 08:11:02;;;;;;;;;;;1.20;99.90;;;;;;5074660;28;20228;-43
2022/01/06 08:13:28;;;;;;;;;;;1.20;99.90;;;;;;5074797;28;19908;-43
2022/01/06 08:15:53;;;;;;;;;;;1.20;99.90;;;;;;5074500;28;19944;-43
2022/01/06 08:18:19;;;;;;;;;;;1.20;99.90;;;;;;5075352;28;19928;-44
2022/01/06 08:20:44;;;;;;;;;;;1.20;99.90;;;;;;5075373;28;19909;-43
2022/01/06 08:23:10;;;;;;;;;;;1.20;99.90;;;;;;5073790;28;19913;-43
2022/01/06 08:25:35;;;;;;;;;;;1.20;99.90;;;;;;5075440;28;19909;-43
2022/01/06 08:28:01;;;;;;;;;;;1.30;99.90;;;;;;5074907;28;20283;-43
2022/01/06 08:30:27;;;;;;;;;;;1.40;99.90;;;;;;5072409;28;19958;-44
2022/01/06 08:32:54;;;;;;;;;;;1.40;99.90;;;;;;5060141;28;19912;-43
2022/01/06 08:35:21;;;;;;;;;;;1.50;99.90;;;;;;5074521;28;19908;-43
2022/01/06 08:37:46;;;;;;;;;;;1.50;99.90;;;;;;5073773;28;19927;-43
2022/01/06 08:40:12;;;;;;;;;;;1.50;99.90;;;;;;5074205;28;19909;-44
2022/01/06 08:42:37;;;;;;;;;;;1.50;99.90;;;;;;5074376;28;19908;-44
2022/01/06 08:45:03;;;;;;;;;;;1.50;99.90;;;;;;5074161;28;19909;-43
2022/01/06 08:47:29;;;;;;;;;;;1.50;99.90;;;;;;5074826;28;19959;-43
2022/01/06 08:49:55;;;;;;;;;;;1.60;99.90;;;;;;5074103;28;19916;-43
2022/01/06 08:52:22;;;;;;;;;;;1.70;99.90;;;;;;5070999;28;19920;-43
2022/01/06 08:54:48;;;;;;;;;;;1.80;99.90;;;;;;5066950;28;19909;-43
2022/01/06 08:57:13;;;;;;;;;;;1.90;99.90;;;;;;5053811;28;19975;-43
2022/01/06 08:59:39;;;;;;;;;;;1.90;99.90;;;;;;5054663;28;19971;-43
2022/01/06 09:02:04;;;;;;;;;;;2.00;99.90;;;;;;5054138;28;19999;-43
2022/01/06 09:04:30;;;;;;;;;;;2.00;99.90;;;;;;5054304;28;19916;-43
2022/01/06 09:06:56;;;;;;;;;;;2.10;99.90;;;;;;5054184;28;19996;-43
2022/01/06 09:09:21;;;;;;;;;;;2.20;99.90;;;;;;5054256;28;20549;-45
2022/01/06 09:11:47;;;;;;;;;;;2.20;99.90;;;;;;5054148;28;19931;-43
2022/01/06 09:14:12;;;;;;;;;;;2.30;99.90;;;;;;5054884;28;19963;-43
2022/01/06 09:16:38;;;;;;;;;;;2.30;99.90;;;;;;5065087;28;20030;-44
2022/01/06 09:19:04;;;;;;;;;;;2.40;99.90;;;;;;5053595;28;19936;-43
2022/01/06 09:21:29;;;;;;;;;;;2.50;99.90;;;;;;5066404;28;19915;-43
2022/01/06 09:23:57;;;;;;;;;;;2.50;99.90;;;;;;5073762;28;19909;-44
2022/01/06 09:26:22;;;;;;;;;;;2.50;99.90;;;;;;5073740;28;20307;-42
2022/01/06 09:28:48;;;;;;;;;;;2.50;99.90;;;;;;5074251;28;19912;-44
2022/01/06 09:31:13;;;;;;;;;;;2.50;99.90;;;;;;5073511;28;19912;-43
2022/01/06 09:33:39;;;;;;;;;;;2.60;99.90;;;;;;5073018;28;20236;-43
2022/01/06 09:36:04;;;;;;;;;;;2.60;99.90;;;;;;5071398;28;19925;-45
2022/01/06 09:38:30;;;;;;;;;;;2.70;99.90;;;;;;5068255;28;20553;-43
2022/01/06 09:40:55;;;;;;;;;;;2.90;99.90;;;;;;5070978;28;19942;-44
2022/01/06 09:43:24;;;;;;;;;;;3.00;99.90;;;;;;5070701;28;19913;-43
2022/01/06 09:45:50;;;;;;;;;;;3.10;99.90;;;;;;5069110;28;19936;-44
2022/01/06 09:48:16;;;;;;;;;;;3.20;99.90;;;;;;5072085;28;19912;-43
2022/01/06 09:50:43;;;;;;;;;;;3.30;99.90;;;;;;5073542;28;19909;-43
2022/01/06 09:53:10;;;;;;;;;;;3.40;99.90;;;;;;5072655;28;19916;-43
2022/01/06 09:55:37;;;;;;;;;;;3.50;99.90;;;;;;5073704;28;19959;-43
2022/01/06 09:58:03;;;;;;;;;;;3.60;99.90;;;;;;5073124;28;19915;-44
2022/01/06 10:00:30;;;;;;;;;;;3.60;99.90;;;;;;5072580;28;19909;-43
2022/01/06 10:02:57;;;;;;;;;;;3.80;99.90;;;;;;5072864;28;20275;-42
2022/01/06 10:05:22;;;;;;;;;;;3.80;99.90;;;;;;5072841;28;20007;-43
2022/01/06 10:07:48;;;;;;;;;;;3.90;99.90;;;;;;5073148;28;20445;-44
2022/01/06 10:10:14;;;;;;;;;;;4.00;99.90;;;;;;5072846;28;20418;-43
2022/01/06 10:12:40;;;;;;;;;;;4.00;99.90;;;;;;5071677;28;20362;-43
2022/01/06 10:15:17;;;;;;;;;;;4.10;99.90;;;;;;5070368;28;20034;-43
2022/01/06 10:17:43;;;;;;;;;;;4.20;99.90;;;;;;5072550;28;19908;-43
2022/01/06 10:20:12;;;;;;;;;;;4.20;99.90;;;;;;5072102;28;19917;-43
2022/01/06 10:22:45;;;;;;;;;;;4.30;99.90;;;;;;5072121;28;20131;-43
2022/01/06 10:25:10;;;;;;;;;;;4.40;99.90;;;;;;5072947;28;19966;-43
2022/01/06 10:27:37;;;;;;;;;;;4.50;99.90;;;;;;5072545;28;19913;-43
2022/01/06 10:30:04;;;;;;;;;;;4.60;99.90;;;;;;5071858;28;19915;-43
2022/01/06 10:32:31;;;;;;;;;;;4.60;99.90;;;;;;5071240;28;20321;-45
2022/01/06 10:35:02;;;;;;;;;;;4.70;99.90;;;;;;5070381;28;19923;-44
2022/01/06 10:37:34;;;;;;;;;;;4.80;99.90;;;;;;5071555;28;20299;-43
2022/01/06 10:40:05;;;;;;;;;;;4.80;99.90;;;;;;5071355;28;20379;-43
2022/01/06 10:42:33;;;;;;;;;;;4.90;99.90;;;;;;5072957;28;19909;-43
2022/01/06 10:45:03;;;;;;;;;;;5.00;99.90;;;;;;5072381;28;19940;-44
2022/01/06 10:47:36;;;;;;;;;;;5.10;99.90;;;;;;5072894;28;19908;-44
2022/01/06 10:50:08;;;;;;;;;;;5.20;99.90;;;;;;5070277;28;19970;-43
2022/01/06 10:52:34;;;;;;;;;;;5.20;99.90;;;;;;5072192;28;19920;-43
2022/01/06 10:55:28;;;;;;;;;;;5.30;99.90;;;;;;5070561;28;19908;-43
2022/01/06 10:57:54;;;;;;;;;;;5.30;99.90;;;;;;5068181;28;19919;-43
2022/01/06 11:00:20;;;;;;;;;;;5.40;99.90;;;;;;5074796;28;20007;-43
2022/01/06 11:02:45;;;;;;;;;;;5.40;99.90;;;;;;5073974;28;19909;-45
2022/01/06 11:05:11;;;;;;;;;;;5.50;99.90;;;;;;5082282;28;19913;-42
2022/01/06 11:07:36;;;;;;;;;;;5.60;99.90;;;;;;5078119;28;20316;-44
2022/01/06 11:10:13;;;;;;;;;;;5.60;99.90;;;;;;5076870;28;19915;-42
2022/01/06 11:12:39;;;;;;;;;;;5.70;99.90;;;;;;5065027;28;19913;-42
2022/01/06 11:15:04;;;;;;;;;;;5.70;99.90;;;;;;5083385;28;19923;-43
2022/01/06 11:17:30;;;;;;;;;;;5.70;99.90;;;;;;5084944;28;19939;-43
2022/01/06 11:19:55;;;;;;;;;;;5.80;99.90;;;;;;5079104;28;20308;-44
2022/01/06 11:22:25;;;;;;;;;;;5.80;99.90;;;;;;5073588;28;19923;-43
2022/01/06 11:24:51;;;;;;;;;;;5.90;99.90;;;;;;5066622;28;19919;-44
2022/01/06 11:27:16;;;;;;;;;;;5.90;99.90;;;;;;5073730;28;19921;-43
2022/01/06 11:29:42;;;;;;;;;;;6.00;99.90;;;;;;5075119;28;19918;-44
2022/01/06 11:32:21;;;;;;;;;;;6.00;99.90;;;;;;5087426;28;19954;-43
2022/01/06 11:34:49;;;;;;;;;;;6.00;99.90;;;;;;5091443;28;19912;-43
2022/01/06 11:37:15;;;;;;;;;;;6.10;99.90;;;;;;5088733;28;19928;-44
2022/01/06 11:39:41;;;;;;;;;;;6.20;99.90;;;;;;5080721;28;19921;-44
2022/01/06 11:42:12;;;;;;;;;;;6.20;99.90;;;;;;5075777;28;19913;-43
2022/01/06 11:44:47;;;;;;;;;;;6.30;99.90;;;;;;5075476;28;19947;-44
2022/01/06 11:47:12;;;;;;;;;;;6.30;99.90;;;;;;5075628;28;19908;-43
2022/01/06 11:49:45;;;;;;;;;;;6.40;99.90;;;;;;5072203;28;19915;-43
2022/01/06 11:52:12;;;;;;;;;;;6.50;99.90;;;;;;5080151;28;19916;-43
2022/01/06 11:54:47;;;;;;;;;;;6.60;99.90;;;;;;5081232;28;19969;-43
2022/01/06 11:57:12;;;;;;;;;;;6.60;99.90;;;;;;5080597;28;20340;-43
2022/01/06 11:59:38;;;;;;;;;;;6.70;99.90;;;;;;5074772;28;20011;-45
2022/01/06 12:02:03;;;;;;;;;;;6.70;99.90;;;;;;5075592;28;19908;-42
2022/01/06 12:04:29;;;;;;;;;;;6.70;99.90;;;;;;5075696;28;19908;-45
2022/01/06 12:07:05;;;;;;;;;;;6.70;99.90;;;;;;5075050;28;19918;-42
2022/01/06 12:09:30;;;;;;;;;;;6.80;99.90;;;;;;5083138;28;19909;-43
2022/01/06 12:12:00;;;;;;;;;;;6.90;99.90;;;;;;5074526;28;19915;-42
2022/01/06 12:14:26;;;;;;;;;;;7.00;99.90;;;;;;5091166;28;20355;-43
2022/01/06 12:16:51;;;;;;;;;;;7.00;99.90;;;;;;5091900;28;20021;-43
2022/01/06 12:19:18;;;;;;;;;;;7.00;99.90;;;;;;5091686;28;20012;-44
2022/01/06 12:21:47;;;;;;;;;;;7.10;99.90;;;;;;5075156;28;20340;-43
2022/01/06 12:24:12;;;;;;;;;;;7.10;99.90;;;;;;5074340;28;19908;-43
2022/01/06 12:26:39;;;;;;;;;;;7.20;99.90;;;;;;5061048;28;19913;-43
2022/01/06 12:29:10;;;;;;;;;;;7.20;99.90;;;;;;5074891;28;19913;-44
2022/01/06 12:31:35;;;;;;;;;;;7.20;99.90;;;;;;5081037;28;20003;-43
2022/01/06 12:34:02;;;;;;;;;;;7.30;99.90;;;;;;5078723;28;20012;-43
2022/01/06 12:36:32;;;;;;;;;;;7.10;99.90;;;;;;5074322;28;19967;-43
2022/01/06 12:38:58;;;;;;;;;;;7.10;99.90;;;;;;5074409;28;19924;-43
2022/01/06 12:41:28;;;;;;;;;;;7.10;99.90;;;;;;5092688;28;19923;-44
2022/01/06 12:43:55;;;;;;;;;;;7.10;99.90;;;;;;5092104;28;19915;-44
2022/01/06 12:46:22;;;;;;;;;;;7.20;99.90;;;;;;5075306;28;19923;-42
2022/01/06 12:48:48;;;;;;;;;;;7.30;99.90;;;;;;5074242;28;20271;-44
2022/01/06 12:51:17;;;;;;;;;;;7.30;99.90;;;;;;5076794;28;19941;-43
2022/01/06 12:53:44;;;;;;;;;;;7.30;99.90;;;;;;5087576;28;19990;-43
2022/01/06 12:56:21;;;;;;;;;;;7.40;99.90;;;;;;5075912;28;19952;-43
2022/01/06 12:58:47;;;;;;;;;;;7.40;99.90;;;;;;5072557;28;20027;-44
2022/01/06 13:01:12;;;;;;;;;;;7.50;99.90;;;;;;5072727;28;20035;-43
2022/01/06 13:03:40;;;;;;;;;;;7.50;99.90;;;;;;5072568;28;19925;-44
2022/01/06 13:06:09;;;;;;;;;;;7.50;99.90;;;;;;5072593;28;20383;-43
2022/01/06 13:08:51;;;;;;;;;;;7.40;99.90;;;;;;5072610;28;19912;-44
2022/01/06 13:11:20;;;;;;;;;;;7.40;99.90;;;;;;5072912;28;19909;-43
2022/01/06 13:13:50;;;;;;;;;;;7.40;99.90;;;;;;5072852;28;19924;-43
2022/01/06 13:16:16;;;;;;;;;;;7.40;99.90;;;;;;5072418;28;20331;-43
2022/01/06 13:18:55;;;;;;;;;;;7.50;99.90;;;;;;5071755;28;20340;-43
2022/01/06 13:21:27;;;;;;;;;;;7.50;99.90;;;;;;5073085;28;19915;-44
2022/01/06 13:23:54;;;;;;;;;;;7.60;99.90;;;;;;5070015;28;20499;-44
2022/01/06 13:26:19;;;;;;;;;;;7.50;99.90;;;;;;5086339;28;19923;-43
2022/01/06 13:28:54;;;;;;;;;;;7.50;99.90;;;;;;5091585;28;19908;-43
2022/01/06 13:31:22;;;;;;;;;;;7.60;99.90;;;;;;5092582;28;19919;-42
2022/01/06 13:33:57;;;;;;;;;;;7.60;99.90;;;;;;5092613;28;20279;-45
2022/01/06 13:36:27;;;;;;;;;;;7.50;99.90;;;;;;5091817;28;19942;-43
2022/01/06 13:39:03;;;;;;;;;;;7.60;99.90;;;;;;5071452;28;19921;-45
2022/01/06 13:41:30;;;;;;;;;;;7.40;99.90;;;;;;5072601;28;19909;-43
2022/01/06 13:43:57;;;;;;;;;;;7.50;99.90;;;;;;5071737;28;20268;-43
2022/01/06 13:46:25;;;;;;;;;;;7.60;99.90;;;;;;5072061;28;19909;-43
2022/01/06 13:51:35;;;;;;;;;;;7.80;99.90;;;;;;5072045;28;19954;-44
2022/01/06 13:54:06;;;;;;;;;;;7.90;99.90;;;;;;5067548;28;19920;-43
2022/01/06 13:56:32;;;;;;;;;;;7.70;99.90;;;;;;5064397;28;19931;-45
2022/01/06 13:58:59;;;;;;;;;;;7.50;99.90;;;;;;5071238;28;19924;-43
2022/01/06 14:01:28;;;;;;;;;;;7.40;99.90;;;;;;5072075;28;19909;-44
2022/01/06 14:03:54;;;;;;;;;;;7.20;99.90;;;;;;5072292;28;19912;-43
2022/01/06 14:06:20;;;;;;;;;;;7.10;99.90;;;;;;5072023;28;19928;-44
2022/01/06 14:08:46;;;;;;;;;;;7.10;99.90;;;;;;5071531;28;19923;-43
2022/01/06 14:11:14;;;;;;;;;;;7.10;99.90;;;;;;5071321;28;19912;-43
2022/01/06 14:13:40;;;;;;;;;;;7.00;99.90;;;;;;5071420;28;19961;-44
2022/01/06 14:16:06;;;;;;;;;;;7.10;99.90;;;;;;5071482;28;19909;-43
2022/01/06 14:18:31;;;;;;;;;;;7.30;99.90;;;;;;5067968;28;19927;-43
2022/01/06 14:20:57;;;;;;;;;;;7.40;99.90;;;;;;5067381;28;20029;-44
2022/01/06 14:23:24;;;;;;;;;;;7.60;99.90;;;;;;5070027;28;19967;-45
2022/01/06 14:25:50;;;;;;;;;;;7.70;99.90;;;;;;5086018;28;20390;-49
2022/01/06 14:28:15;;;;;;;;;;;7.80;99.90;;;;;;5083940;28;19913;-43
2022/01/06 14:30:41;;;;;;;;;;;7.80;99.90;;;;;;5070716;28;19919;-43
2022/01/06 14:33:07;;;;;;;;;;;7.60;99.90;;;;;;5071318;28;19972;-44
2022/01/06 14:35:33;;;;;;;;;;;7.50;99.90;;;;;;5071232;28;20348;-43
2022/01/06 14:37:58;;;;;;;;;;;7.30;99.90;;;;;;5070590;28;19927;-46
2022/01/06 14:40:25;;;;;;;;;;;7.20;99.90;;;;;;5070106;28;22127;-44